Terminal Aerodrome Forecast
Issued by NWS

Home | Current Version | Previous Version | Text Only | Print | Product List | Glossary On
Versions: 1 2 3 4 5 6 7 8 9 10 11 12 13 14 15 16
000
FTUS43 KDVN 171700
TAFCID
TAF
KCID 171720Z 1718/1818 29012KT P6SM BKN019
     FM171900 32012KT P6SM SCT025 BKN150
     FM180000 33004KT P6SM SCT150
     FM181200 08007KT P6SM SKC=

USA.gov is the U.S. government's official web portal to all federal, state and local government web resources and services.